sensor_id;sensor_type;location;lat;lon;timestamp;P1;durP1;ratioP1;P2;durP2;ratioP2
495;SDS011;39559;48.630;9.162;2023-06-19T00:02:22;34.60;;;25.70;;
495;SDS011;39559;48.630;9.162;2023-06-19T00:06:51;25.80;;;18.05;;
495;SDS011;39559;48.630;9.162;2023-06-19T00:09:16;33.80;;;26.33;;
495;SDS011;39559;48.630;9.162;2023-06-19T00:11:42;32.63;;;21.53;;
495;SDS011;39559;48.630;9.162;2023-06-19T00:14:08;31.60;;;23.63;;
495;SDS011;39559;48.630;9.162;2023-06-19T00:16:33;31.67;;;22.63;;
495;SDS011;39559;48.630;9.162;2023-06-19T00:18:59;25.40;;;19.43;;
495;SDS011;39559;48.630;9.162;2023-06-19T00:21:24;30.87;;;20.90;;
495;SDS011;39559;48.630;9.162;2023-06-19T00:23:51;25.60;;;20.00;;
495;SDS011;39559;48.630;9.162;2023-06-19T00:26:17;27.38;;;18.50;;
495;SDS011;39559;48.630;9.162;2023-06-19T00:30:45;19.40;;;14.77;;
495;SDS011;39559;48.630;9.162;2023-06-19T00:33:23;17.97;;;14.70;;
495;SDS011;39559;48.630;9.162;2023-06-19T00:35:50;15.83;;;13.83;;
495;SDS011;39559;48.630;9.162;2023-06-19T00:38:16;18.23;;;13.32;;
495;SDS011;39559;48.630;9.162;2023-06-19T00:40:42;17.80;;;12.73;;
495;SDS011;39559;48.630;9.162;2023-06-19T00:43:07;15.80;;;12.90;;
495;SDS011;39559;48.630;9.162;2023-06-19T00:45:33;16.02;;;11.93;;
495;SDS011;39559;48.630;9.162;2023-06-19T00:47:59;12.67;;;11.30;;
495;SDS011;39559;48.630;9.162;2023-06-19T00:50:27;16.38;;;12.60;;
495;SDS011;39559;48.630;9.162;2023-06-19T00:54:40;13.05;;;10.63;;
495;SDS011;39559;48.630;9.162;2023-06-19T00:57:05;13.97;;;11.47;;
495;SDS011;39559;48.630;9.162;2023-06-19T00:59:32;14.40;;;11.75;;
495;SDS011;39559;48.630;9.162;2023-06-19T01:01:58;12.40;;;10.80;;
495;SDS011;39559;48.630;9.162;2023-06-19T01:04:24;16.63;;;12.43;;
495;SDS011;39559;48.630;9.162;2023-06-19T01:06:52;14.60;;;11.63;;
495;SDS011;39559;48.630;9.162;2023-06-19T01:09:36;13.68;;;11.07;;
495;SDS011;39559;48.630;9.162;2023-06-19T01:12:56;12.85;;;11.32;;
495;SDS011;39559;48.630;9.162;2023-06-19T01:15:03;16.52;;;12.20;;
495;SDS011;39559;48.630;9.162;2023-06-19T01:18:34;17.42;;;13.40;;
495;SDS011;39559;48.630;9.162;2023-06-19T01:21:12;20.40;;;15.45;;
495;SDS011;39559;48.630;9.162;2023-06-19T01:23:38;16.33;;;13.63;;
495;SDS011;39559;48.630;9.162;2023-06-19T01:26:05;17.27;;;13.20;;
495;SDS011;39559;48.630;9.162;2023-06-19T01:28:32;16.25;;;11.82;;
495;SDS011;39559;48.630;9.162;2023-06-19T01:31:00;13.43;;;10.57;;
495;SDS011;39559;48.630;9.162;2023-06-19T01:33:28;11.90;;;9.63;;
495;SDS011;39559;48.630;9.162;2023-06-19T01:35:58;13.80;;;10.63;;
495;SDS011;39559;48.630;9.162;2023-06-19T01:38:26;11.17;;;9.73;;
495;SDS011;39559;48.630;9.162;2023-06-19T01:42:29;13.17;;;9.77;;
495;SDS011;39559;48.630;9.162;2023-06-19T01:44:54;9.40;;;7.43;;
495;SDS011;39559;48.630;9.162;2023-06-19T01:47:20;8.90;;;7.30;;
495;SDS011;39559;48.630;9.162;2023-06-19T01:49:46;11.30;;;7.40;;
495;SDS011;39559;48.630;9.162;2023-06-19T01:52:12;10.23;;;7.97;;
495;SDS011;39559;48.630;9.162;2023-06-19T01:54:38;9.30;;;6.33;;
495;SDS011;39559;48.630;9.162;2023-06-19T01:57:04;7.53;;;6.77;;
495;SDS011;39559;48.630;9.162;2023-06-19T01:59:31;7.10;;;6.40;;
495;SDS011;39559;48.630;9.162;2023-06-19T02:01:56;10.57;;;7.27;;
495;SDS011;39559;48.630;9.162;2023-06-19T02:06:23;8.20;;;6.77;;
495;SDS011;39559;48.630;9.162;2023-06-19T02:08:49;8.97;;;6.70;;
495;SDS011;39559;48.630;9.162;2023-06-19T02:11:14;7.70;;;6.70;;
495;SDS011;39559;48.630;9.162;2023-06-19T02:13:40;11.07;;;7.40;;
495;SDS011;39559;48.630;9.162;2023-06-19T02:16:07;7.63;;;6.70;;
495;SDS011;39559;48.630;9.162;2023-06-19T02:18:32;10.20;;;6.63;;
495;SDS011;39559;48.630;9.162;2023-06-19T02:20:58;8.80;;;6.60;;
495;SDS011;39559;48.630;9.162;2023-06-19T02:23:24;6.63;;;6.03;;
495;SDS011;39559;48.630;9.162;2023-06-19T02:25:50;8.70;;;6.50;;
495;SDS011;39559;48.630;9.162;2023-06-19T02:30:18;7.77;;;6.33;;
495;SDS011;39559;48.630;9.162;2023-06-19T02:32:43;6.63;;;5.90;;
495;SDS011;39559;48.630;9.162;2023-06-19T02:35:09;7.70;;;6.20;;
495;SDS011;39559;48.630;9.162;2023-06-19T02:37:36;7.33;;;6.63;;
495;SDS011;39559;48.630;9.162;2023-06-19T02:40:05;7.27;;;6.33;;
495;SDS011;39559;48.630;9.162;2023-06-19T02:42:31;7.37;;;6.60;;
495;SDS011;39559;48.630;9.162;2023-06-19T02:44:57;7.50;;;6.17;;
495;SDS011;39559;48.630;9.162;2023-06-19T02:47:28;9.57;;;6.70;;
495;SDS011;39559;48.630;9.162;2023-06-19T02:49:56;7.30;;;6.43;;
495;SDS011;39559;48.630;9.162;2023-06-19T02:54:12;8.53;;;7.30;;
495;SDS011;39559;48.630;9.162;2023-06-19T02:56:38;7.57;;;6.47;;
495;SDS011;39559;48.630;9.162;2023-06-19T02:59:04;7.50;;;6.13;;
495;SDS011;39559;48.630;9.162;2023-06-19T03:01:29;7.47;;;6.20;;
495;SDS011;39559;48.630;9.162;2023-06-19T03:03:55;7.57;;;6.43;;
495;SDS011;39559;48.630;9.162;2023-06-19T03:06:21;12.53;;;6.50;;
495;SDS011;39559;48.630;9.162;2023-06-19T03:08:47;6.83;;;6.10;;
495;SDS011;39559;48.630;9.162;2023-06-19T03:11:12;6.20;;;5.57;;
495;SDS011;39559;48.630;9.162;2023-06-19T03:13:47;6.80;;;5.57;;
495;SDS011;39559;48.630;9.162;2023-06-19T03:18:07;6.60;;;5.90;;
495;SDS011;39559;48.630;9.162;2023-06-19T03:20:35;6.37;;;5.73;;
495;SDS011;39559;48.630;9.162;2023-06-19T03:23:00;6.90;;;6.00;;
495;SDS011;39559;48.630;9.162;2023-06-19T03:25:26;7.73;;;6.83;;
495;SDS011;39559;48.630;9.162;2023-06-19T03:27:52;9.17;;;6.23;;
495;SDS011;39559;48.630;9.162;2023-06-19T03:30:17;7.20;;;6.47;;
495;SDS011;39559;48.630;9.162;2023-06-19T03:32:43;7.70;;;6.43;;
495;SDS011;39559;48.630;9.162;2023-06-19T03:35:09;9.33;;;6.50;;
495;SDS011;39559;48.630;9.162;2023-06-19T03:37:35;6.53;;;5.70;;
495;SDS011;39559;48.630;9.162;2023-06-19T03:42:02;7.80;;;6.43;;
495;SDS011;39559;48.630;9.162;2023-06-19T03:44:27;6.53;;;5.83;;
495;SDS011;39559;48.630;9.162;2023-06-19T03:46:53;8.00;;;6.60;;
495;SDS011;39559;48.630;9.162;2023-06-19T03:49:19;6.70;;;6.00;;
495;SDS011;39559;48.630;9.162;2023-06-19T03:51:44;8.33;;;6.20;;
495;SDS011;39559;48.630;9.162;2023-06-19T03:54:10;9.13;;;6.70;;
495;SDS011;39559;48.630;9.162;2023-06-19T03:56:36;11.37;;;6.70;;
495;SDS011;39559;48.630;9.162;2023-06-19T03:59:01;6.57;;;5.93;;
495;SDS011;39559;48.630;9.162;2023-06-19T04:01:27;8.47;;;6.60;;
495;SDS011;39559;48.630;9.162;2023-06-19T04:05:57;7.70;;;6.37;;
495;SDS011;39559;48.630;9.162;2023-06-19T04:08:23;7.23;;;6.00;;
495;SDS011;39559;48.630;9.162;2023-06-19T04:10:50;6.80;;;6.20;;
495;SDS011;39559;48.630;9.162;2023-06-19T04:13:15;6.43;;;5.50;;
495;SDS011;39559;48.630;9.162;2023-06-19T04:15:41;8.40;;;6.50;;
495;SDS011;39559;48.630;9.162;2023-06-19T04:18:09;6.30;;;5.60;;
495;SDS011;39559;48.630;9.162;2023-06-19T04:20:35;7.07;;;5.97;;
495;SDS011;39559;48.630;9.162;2023-06-19T04:23:01;6.50;;;5.80;;
495;SDS011;39559;48.630;9.162;2023-06-19T04:25:26;7.13;;;5.47;;
495;SDS011;39559;48.630;9.162;2023-06-19T04:29:52;6.67;;;5.97;;
495;SDS011;39559;48.630;9.162;2023-06-19T04:32:18;6.50;;;5.27;;
495;SDS011;39559;48.630;9.162;2023-06-19T04:34:44;5.23;;;4.73;;
495;SDS011;39559;48.630;9.162;2023-06-19T04:37:11;5.50;;;5.00;;
495;SDS011;39559;48.630;9.162;2023-06-19T04:39:37;5.80;;;5.20;;
495;SDS011;39559;48.630;9.162;2023-06-19T04:42:03;5.60;;;4.97;;
495;SDS011;39559;48.630;9.162;2023-06-19T04:44:29;6.63;;;5.00;;
495;SDS011;39559;48.630;9.162;2023-06-19T04:46:59;4.97;;;4.47;;
495;SDS011;39559;48.630;9.162;2023-06-19T04:49:28;7.23;;;4.63;;
495;SDS011;39559;48.630;9.162;2023-06-19T04:53:48;6.20;;;5.30;;
495;SDS011;39559;48.630;9.162;2023-06-19T04:56:14;7.53;;;4.97;;
495;SDS011;39559;48.630;9.162;2023-06-19T04:58:40;9.00;;;5.40;;
495;SDS011;39559;48.630;9.162;2023-06-19T05:01:11;5.87;;;5.27;;
495;SDS011;39559;48.630;9.162;2023-06-19T05:03:39;6.03;;;5.33;;
495;SDS011;39559;48.630;9.162;2023-06-19T05:06:05;5.23;;;4.73;;
495;SDS011;39559;48.630;9.162;2023-06-19T05:08:31;5.30;;;4.30;;
495;SDS011;39559;48.630;9.162;2023-06-19T05:10:57;5.67;;;4.40;;
495;SDS011;39559;48.630;9.162;2023-06-19T05:13:23;5.20;;;4.60;;
495;SDS011;39559;48.630;9.162;2023-06-19T05:17:42;4.97;;;4.47;;
495;SDS011;39559;48.630;9.162;2023-06-19T05:20:13;4.77;;;4.27;;
495;SDS011;39559;48.630;9.162;2023-06-19T05:22:46;7.13;;;5.20;;
495;SDS011;39559;48.630;9.162;2023-06-19T05:25:11;6.90;;;4.67;;
495;SDS011;39559;48.630;9.162;2023-06-19T05:27:37;5.00;;;4.50;;
495;SDS011;39559;48.630;9.162;2023-06-19T05:30:03;5.73;;;4.77;;
495;SDS011;39559;48.630;9.162;2023-06-19T05:32:29;5.70;;;4.53;;
495;SDS011;39559;48.630;9.162;2023-06-19T05:34:55;5.93;;;4.07;;
495;SDS011;39559;48.630;9.162;2023-06-19T05:37:21;5.77;;;4.70;;
495;SDS011;39559;48.630;9.162;2023-06-19T05:41:38;4.70;;;4.20;;
495;SDS011;39559;48.630;9.162;2023-06-19T05:44:03;5.37;;;4.80;;
495;SDS011;39559;48.630;9.162;2023-06-19T05:46:29;5.27;;;4.77;;
495;SDS011;39559;48.630;9.162;2023-06-19T05:48:55;4.53;;;4.10;;
495;SDS011;39559;48.630;9.162;2023-06-19T05:51:20;5.60;;;4.70;;
495;SDS011;39559;48.630;9.162;2023-06-19T05:53:46;5.97;;;4.20;;
495;SDS011;39559;48.630;9.162;2023-06-19T05:56:14;4.90;;;4.40;;
495;SDS011;39559;48.630;9.162;2023-06-19T05:58:39;4.50;;;3.93;;
495;SDS011;39559;48.630;9.162;2023-06-19T06:01:05;5.37;;;4.37;;
495;SDS011;39559;48.630;9.162;2023-06-19T06:05:41;5.63;;;4.83;;
495;SDS011;39559;48.630;9.162;2023-06-19T06:08:08;5.60;;;4.97;;
495;SDS011;39559;48.630;9.162;2023-06-19T06:10:34;5.13;;;4.50;;
495;SDS011;39559;48.630;9.162;2023-06-19T06:13:00;4.30;;;3.90;;
495;SDS011;39559;48.630;9.162;2023-06-19T06:15:26;6.40;;;4.67;;
495;SDS011;39559;48.630;9.162;2023-06-19T06:17:51;4.73;;;4.10;;
495;SDS011;39559;48.630;9.162;2023-06-19T06:20:17;4.63;;;4.20;;
495;SDS011;39559;48.630;9.162;2023-06-19T06:22:43;4.30;;;3.87;;
495;SDS011;39559;48.630;9.162;2023-06-19T06:25:09;5.17;;;4.20;;
495;SDS011;39559;48.630;9.162;2023-06-19T06:29:25;5.03;;;4.43;;
495;SDS011;39559;48.630;9.162;2023-06-19T06:31:51;5.37;;;4.30;;
495;SDS011;39559;48.630;9.162;2023-06-19T06:34:27;5.13;;;4.07;;
495;SDS011;39559;48.630;9.162;2023-06-19T06:36:53;5.07;;;4.57;;
495;SDS011;39559;48.630;9.162;2023-06-19T06:39:19;4.97;;;4.47;;
495;SDS011;39559;48.630;9.162;2023-06-19T06:41:45;5.10;;;4.60;;
495;SDS011;39559;48.630;9.162;2023-06-19T06:44:10;6.37;;;4.60;;
495;SDS011;39559;48.630;9.162;2023-06-19T06:46:36;4.47;;;4.07;;
495;SDS011;39559;48.630;9.162;2023-06-19T06:49:01;7.40;;;4.70;;
495;SDS011;39559;48.630;9.162;2023-06-19T06:53:23;5.23;;;4.70;;
495;SDS011;39559;48.630;9.162;2023-06-19T06:55:48;6.30;;;4.57;;
495;SDS011;39559;48.630;9.162;2023-06-19T06:58:14;5.30;;;4.47;;
495;SDS011;39559;48.630;9.162;2023-06-19T07:00:40;4.80;;;3.97;;
495;SDS011;39559;48.630;9.162;2023-06-19T07:03:07;4.77;;;4.00;;
495;SDS011;39559;48.630;9.162;2023-06-19T07:05:32;6.70;;;4.03;;
495;SDS011;39559;48.630;9.162;2023-06-19T07:07:58;4.63;;;4.17;;
495;SDS011;39559;48.630;9.162;2023-06-19T07:10:24;4.10;;;3.70;;
495;SDS011;39559;48.630;9.162;2023-06-19T07:12:49;4.17;;;3.77;;
495;SDS011;39559;48.630;9.162;2023-06-19T07:17:18;4.40;;;3.60;;
495;SDS011;39559;48.630;9.162;2023-06-19T07:19:44;5.40;;;4.57;;
495;SDS011;39559;48.630;9.162;2023-06-19T07:22:10;4.77;;;4.10;;
495;SDS011;39559;48.630;9.162;2023-06-19T07:24:36;4.80;;;4.30;;
495;SDS011;39559;48.630;9.162;2023-06-19T07:27:02;5.80;;;4.30;;
495;SDS011;39559;48.630;9.162;2023-06-19T07:29:27;4.70;;;4.30;;
495;SDS011;39559;48.630;9.162;2023-06-19T07:31:53;5.20;;;4.70;;
495;SDS011;39559;48.630;9.162;2023-06-19T07:34:19;4.40;;;4.00;;
495;SDS011;39559;48.630;9.162;2023-06-19T07:36:44;4.73;;;4.20;;
495;SDS011;39559;48.630;9.162;2023-06-19T07:41:13;6.60;;;4.70;;
495;SDS011;39559;48.630;9.162;2023-06-19T07:43:39;4.87;;;4.37;;
495;SDS011;39559;48.630;9.162;2023-06-19T07:46:04;5.27;;;4.73;;
495;SDS011;39559;48.630;9.162;2023-06-19T07:48:30;6.17;;;5.00;;
495;SDS011;39559;48.630;9.162;2023-06-19T07:50:56;4.33;;;3.93;;
495;SDS011;39559;48.630;9.162;2023-06-19T07:53:22;5.10;;;4.60;;
495;SDS011;39559;48.630;9.162;2023-06-19T07:55:49;5.10;;;4.53;;
495;SDS011;39559;48.630;9.162;2023-06-19T07:58:15;6.20;;;4.30;;
495;SDS011;39559;48.630;9.162;2023-06-19T08:00:41;5.13;;;4.40;;
495;SDS011;39559;48.630;9.162;2023-06-19T08:05:08;5.07;;;4.57;;
495;SDS011;39559;48.630;9.162;2023-06-19T08:07:35;5.63;;;4.50;;
495;SDS011;39559;48.630;9.162;2023-06-19T08:10:01;5.60;;;4.47;;
495;SDS011;39559;48.630;9.162;2023-06-19T08:12:29;5.83;;;4.87;;
495;SDS011;39559;48.630;9.162;2023-06-19T08:14:55;6.60;;;4.27;;
495;SDS011;39559;48.630;9.162;2023-06-19T08:17:21;4.50;;;4.07;;
495;SDS011;39559;48.630;9.162;2023-06-19T08:19:47;4.70;;;4.30;;
495;SDS011;39559;48.630;9.162;2023-06-19T08:22:13;4.33;;;3.67;;
495;SDS011;39559;48.630;9.162;2023-06-19T08:24:38;4.33;;;3.60;;
495;SDS011;39559;48.630;9.162;2023-06-19T08:29:02;4.23;;;3.83;;
495;SDS011;39559;48.630;9.162;2023-06-19T08:31:28;4.70;;;3.63;;
495;SDS011;39559;48.630;9.162;2023-06-19T08:33:54;4.77;;;4.07;;
495;SDS011;39559;48.630;9.162;2023-06-19T08:36:21;3.93;;;3.63;;
495;SDS011;39559;48.630;9.162;2023-06-19T08:38:47;4.20;;;3.80;;
495;SDS011;39559;48.630;9.162;2023-06-19T08:41:17;4.60;;;4.00;;
495;SDS011;39559;48.630;9.162;2023-06-19T08:43:48;5.07;;;4.43;;
495;SDS011;39559;48.630;9.162;2023-06-19T08:46:15;6.13;;;4.60;;
495;SDS011;39559;48.630;9.162;2023-06-19T08:48:44;5.00;;;4.43;;
495;SDS011;39559;48.630;9.162;2023-06-19T08:53:01;4.80;;;4.30;;
495;SDS011;39559;48.630;9.162;2023-06-19T08:55:26;5.33;;;4.13;;
495;SDS011;39559;48.630;9.162;2023-06-19T08:57:54;4.73;;;4.30;;
495;SDS011;39559;48.630;9.162;2023-06-19T09:00:27;5.10;;;4.60;;
495;SDS011;39559;48.630;9.162;2023-06-19T09:03:00;5.17;;;4.33;;
495;SDS011;39559;48.630;9.162;2023-06-19T09:05:28;5.13;;;4.63;;
495;SDS011;39559;48.630;9.162;2023-06-19T09:07:58;6.20;;;4.80;;
495;SDS011;39559;48.630;9.162;2023-06-19T09:10:26;4.73;;;4.30;;
495;SDS011;39559;48.630;9.162;2023-06-19T09:12:59;4.20;;;3.80;;
495;SDS011;39559;48.630;9.162;2023-06-19T09:16:51;4.53;;;3.23;;
495;SDS011;39559;48.630;9.162;2023-06-19T09:19:20;3.73;;;3.43;;
495;SDS011;39559;48.630;9.162;2023-06-19T09:21:46;3.90;;;3.60;;
495;SDS011;39559;48.630;9.162;2023-06-19T09:24:11;3.70;;;3.40;;
495;SDS011;39559;48.630;9.162;2023-06-19T09:26:37;3.90;;;3.00;;
495;SDS011;39559;48.630;9.162;2023-06-19T09:29:09;3.70;;;3.37;;
495;SDS011;39559;48.630;9.162;2023-06-19T09:31:41;3.63;;;3.33;;
495;SDS011;39559;48.630;9.162;2023-06-19T09:34:08;3.60;;;3.30;;
495;SDS011;39559;48.630;9.162;2023-06-19T09:36:34;3.53;;;3.23;;
495;SDS011;39559;48.630;9.162;2023-06-19T09:40:47;3.40;;;3.10;;
495;SDS011;39559;48.630;9.162;2023-06-19T09:43:14;3.90;;;3.50;;
495;SDS011;39559;48.630;9.162;2023-06-19T09:45:48;3.80;;;3.37;;
495;SDS011;39559;48.630;9.162;2023-06-19T09:48:19;3.97;;;3.67;;
495;SDS011;39559;48.630;9.162;2023-06-19T09:50:52;4.10;;;3.73;;
495;SDS011;39559;48.630;9.162;2023-06-19T09:53:25;3.83;;;3.53;;
495;SDS011;39559;48.630;9.162;2023-06-19T09:55:51;3.63;;;3.33;;
495;SDS011;39559;48.630;9.162;2023-06-19T09:58:18;3.67;;;3.37;;
495;SDS011;39559;48.630;9.162;2023-06-19T10:00:45;3.70;;;3.40;;
495;SDS011;39559;48.630;9.162;2023-06-19T10:04:42;3.57;;;3.27;;
495;SDS011;39559;48.630;9.162;2023-06-19T10:07:17;5.20;;;3.27;;
495;SDS011;39559;48.630;9.162;2023-06-19T10:09:55;4.00;;;3.67;;
495;SDS011;39559;48.630;9.162;2023-06-19T10:12:33;3.73;;;3.30;;
495;SDS011;39559;48.630;9.162;2023-06-19T10:15:21;3.60;;;3.30;;
495;SDS011;39559;48.630;9.162;2023-06-19T10:17:51;3.70;;;3.40;;
495;SDS011;39559;48.630;9.162;2023-06-19T10:20:35;3.93;;;3.60;;
495;SDS011;39559;48.630;9.162;2023-06-19T10:23:05;4.00;;;3.60;;
495;SDS011;39559;48.630;9.162;2023-06-19T10:25:43;3.60;;;3.30;;
495;SDS011;39559;48.630;9.162;2023-06-19T10:28:34;3.70;;;3.40;;
495;SDS011;39559;48.630;9.162;2023-06-19T10:31:01;3.70;;;3.40;;
495;SDS011;39559;48.630;9.162;2023-06-19T10:33:32;6.17;;;4.00;;
495;SDS011;39559;48.630;9.162;2023-06-19T10:36:00;4.23;;;3.83;;
495;SDS011;39559;48.630;9.162;2023-06-19T10:38:27;3.90;;;3.60;;
495;SDS011;39559;48.630;9.162;2023-06-19T10:40:54;4.77;;;3.20;;
495;SDS011;39559;48.630;9.162;2023-06-19T10:43:21;3.90;;;3.47;;
495;SDS011;39559;48.630;9.162;2023-06-19T10:45:57;4.87;;;3.80;;
495;SDS011;39559;48.630;9.162;2023-06-19T10:48:24;3.90;;;3.60;;
495;SDS011;39559;48.630;9.162;2023-06-19T10:52:39;4.10;;;3.70;;
495;SDS011;39559;48.630;9.162;2023-06-19T10:55:06;3.90;;;3.60;;
495;SDS011;39559;48.630;9.162;2023-06-19T10:57:33;3.80;;;3.50;;
495;SDS011;39559;48.630;9.162;2023-06-19T10:59:59;4.07;;;3.70;;
495;SDS011;39559;48.630;9.162;2023-06-19T11:02:26;3.90;;;3.60;;
495;SDS011;39559;48.630;9.162;2023-06-19T11:04:53;4.20;;;3.83;;
495;SDS011;39559;48.630;9.162;2023-06-19T11:07:22;3.77;;;3.47;;
495;SDS011;39559;48.630;9.162;2023-06-19T11:09:51;3.50;;;3.20;;
495;SDS011;39559;48.630;9.162;2023-06-19T11:12:22;3.60;;;3.30;;
495;SDS011;39559;48.630;9.162;2023-06-19T11:16:26;3.60;;;3.30;;
495;SDS011;39559;48.630;9.162;2023-06-19T11:18:56;4.37;;;3.73;;
495;SDS011;39559;48.630;9.162;2023-06-19T11:21:29;3.83;;;3.40;;
495;SDS011;39559;48.630;9.162;2023-06-19T11:23:58;4.27;;;3.87;;
495;SDS011;39559;48.630;9.162;2023-06-19T11:26:24;4.70;;;4.20;;
495;SDS011;39559;48.630;9.162;2023-06-19T11:28:50;4.00;;;3.70;;
495;SDS011;39559;48.630;9.162;2023-06-19T11:31:16;4.73;;;4.20;;
495;SDS011;39559;48.630;9.162;2023-06-19T11:33:41;4.43;;;4.03;;
495;SDS011;39559;48.630;9.162;2023-06-19T11:36:07;4.87;;;4.40;;
495;SDS011;39559;48.630;9.162;2023-06-19T11:40:16;4.97;;;4.47;;
495;SDS011;39559;48.630;9.162;2023-06-19T11:42:48;6.27;;;4.20;;
495;SDS011;39559;48.630;9.162;2023-06-19T11:45:16;4.10;;;3.80;;
495;SDS011;39559;48.630;9.162;2023-06-19T11:47:45;4.40;;;4.00;;
495;SDS011;39559;48.630;9.162;2023-06-19T11:50:12;4.63;;;4.20;;
495;SDS011;39559;48.630;9.162;2023-06-19T11:52:39;4.40;;;4.00;;
495;SDS011;39559;48.630;9.162;2023-06-19T11:55:05;4.70;;;4.30;;
495;SDS011;39559;48.630;9.162;2023-06-19T11:57:31;4.97;;;4.47;;
495;SDS011;39559;48.630;9.162;2023-06-19T11:59:58;5.97;;;4.60;;
495;SDS011;39559;48.630;9.162;2023-06-19T12:04:09;4.90;;;4.30;;
495;SDS011;39559;48.630;9.162;2023-06-19T12:06:34;4.70;;;4.30;;
495;SDS011;39559;48.630;9.162;2023-06-19T12:09:01;4.93;;;4.53;;
495;SDS011;39559;48.630;9.162;2023-06-19T12:11:26;5.23;;;4.53;;
495;SDS011;39559;48.630;9.162;2023-06-19T12:13:52;5.03;;;4.63;;
495;SDS011;39559;48.630;9.162;2023-06-19T12:16:23;5.80;;;4.13;;
495;SDS011;39559;48.630;9.162;2023-06-19T12:18:49;5.10;;;4.60;;
495;SDS011;39559;48.630;9.162;2023-06-19T12:21:14;5.23;;;4.13;;
495;SDS011;39559;48.630;9.162;2023-06-19T12:23:40;7.40;;;4.20;;
495;SDS011;39559;48.630;9.162;2023-06-19T12:28:02;4.60;;;4.20;;
495;SDS011;39559;48.630;9.162;2023-06-19T12:30:34;4.37;;;3.97;;
495;SDS011;39559;48.630;9.162;2023-06-19T12:33:00;5.47;;;4.93;;
495;SDS011;39559;48.630;9.162;2023-06-19T12:35:26;5.43;;;4.93;;
495;SDS011;39559;48.630;9.162;2023-06-19T12:37:51;5.07;;;4.57;;
495;SDS011;39559;48.630;9.162;2023-06-19T12:40:17;5.33;;;4.43;;
495;SDS011;39559;48.630;9.162;2023-06-19T12:42:43;5.07;;;4.57;;
495;SDS011;39559;48.630;9.162;2023-06-19T12:45:09;5.00;;;4.50;;
495;SDS011;39559;48.630;9.162;2023-06-19T12:47:36;5.20;;;4.57;;
495;SDS011;39559;48.630;9.162;2023-06-19T12:51:55;7.50;;;4.70;;
495;SDS011;39559;48.630;9.162;2023-06-19T12:54:20;5.10;;;4.60;;
495;SDS011;39559;48.630;9.162;2023-06-19T12:56:46;4.73;;;4.33;;
495;SDS011;39559;48.630;9.162;2023-06-19T12:59:12;5.63;;;4.40;;
495;SDS011;39559;48.630;9.162;2023-06-19T13:01:37;4.63;;;4.23;;
495;SDS011;39559;48.630;9.162;2023-06-19T13:04:03;4.80;;;4.40;;
495;SDS011;39559;48.630;9.162;2023-06-19T13:06:29;5.20;;;4.60;;
495;SDS011;39559;48.630;9.162;2023-06-19T13:08:54;4.80;;;4.40;;
495;SDS011;39559;48.630;9.162;2023-06-19T13:11:30;4.50;;;4.10;;
495;SDS011;39559;48.630;9.162;2023-06-19T13:15:48;5.40;;;4.43;;
495;SDS011;39559;48.630;9.162;2023-06-19T13:18:14;4.90;;;4.50;;
495;SDS011;39559;48.630;9.162;2023-06-19T13:20:39;5.30;;;4.80;;
495;SDS011;39559;48.630;9.162;2023-06-19T13:23:05;5.07;;;4.67;;
495;SDS011;39559;48.630;9.162;2023-06-19T13:25:31;5.33;;;4.77;;
495;SDS011;39559;48.630;9.162;2023-06-19T13:28:11;5.93;;;5.00;;
495;SDS011;39559;48.630;9.162;2023-06-19T13:30:36;5.43;;;4.97;;
495;SDS011;39559;48.630;9.162;2023-06-19T13:33:02;5.60;;;5.00;;
495;SDS011;39559;48.630;9.162;2023-06-19T13:35:28;5.00;;;4.43;;
495;SDS011;39559;48.630;9.162;2023-06-19T13:39:44;4.80;;;4.40;;
495;SDS011;39559;48.630;9.162;2023-06-19T13:42:10;6.60;;;5.03;;
495;SDS011;39559;48.630;9.162;2023-06-19T13:44:36;5.57;;;4.83;;
495;SDS011;39559;48.630;9.162;2023-06-19T13:47:04;6.00;;;4.97;;
495;SDS011;39559;48.630;9.162;2023-06-19T13:49:31;4.73;;;4.33;;
495;SDS011;39559;48.630;9.162;2023-06-19T13:52:01;4.73;;;4.33;;
495;SDS011;39559;48.630;9.162;2023-06-19T13:54:26;5.50;;;5.00;;
495;SDS011;39559;48.630;9.162;2023-06-19T13:56:52;5.50;;;5.00;;
495;SDS011;39559;48.630;9.162;2023-06-19T13:59:18;5.13;;;4.70;;
495;SDS011;39559;48.630;9.162;2023-06-19T14:03:37;4.77;;;4.37;;
495;SDS011;39559;48.630;9.162;2023-06-19T14:06:04;5.23;;;4.73;;
495;SDS011;39559;48.630;9.162;2023-06-19T14:08:30;4.50;;;4.10;;
495;SDS011;39559;48.630;9.162;2023-06-19T14:10:56;5.17;;;4.77;;
495;SDS011;39559;48.630;9.162;2023-06-19T14:13:22;5.03;;;4.53;;
495;SDS011;39559;48.630;9.162;2023-06-19T14:15:47;5.63;;;5.13;;
495;SDS011;39559;48.630;9.162;2023-06-19T14:18:13;4.87;;;4.47;;
495;SDS011;39559;48.630;9.162;2023-06-19T14:20:39;5.17;;;4.63;;
495;SDS011;39559;48.630;9.162;2023-06-19T14:23:06;4.67;;;4.23;;
495;SDS011;39559;48.630;9.162;2023-06-19T14:27:26;5.13;;;4.63;;
495;SDS011;39559;48.630;9.162;2023-06-19T14:29:55;8.40;;;4.60;;
495;SDS011;39559;48.630;9.162;2023-06-19T14:32:22;5.57;;;5.10;;
495;SDS011;39559;48.630;9.162;2023-06-19T14:34:51;5.30;;;4.80;;
495;SDS011;39559;48.630;9.162;2023-06-19T14:37:17;5.67;;;5.20;;
495;SDS011;39559;48.630;9.162;2023-06-19T14:39:43;5.80;;;5.27;;
495;SDS011;39559;48.630;9.162;2023-06-19T14:42:09;5.37;;;4.87;;
495;SDS011;39559;48.630;9.162;2023-06-19T14:44:35;4.90;;;4.40;;
495;SDS011;39559;48.630;9.162;2023-06-19T14:47:02;6.10;;;5.37;;
495;SDS011;39559;48.630;9.162;2023-06-19T14:51:18;5.83;;;5.23;;
495;SDS011;39559;48.630;9.162;2023-06-19T14:53:44;6.20;;;4.97;;
495;SDS011;39559;48.630;9.162;2023-06-19T14:56:09;5.80;;;5.13;;
495;SDS011;39559;48.630;9.162;2023-06-19T14:58:35;5.77;;;5.27;;
495;SDS011;39559;48.630;9.162;2023-06-19T15:01:00;5.43;;;4.93;;
495;SDS011;39559;48.630;9.162;2023-06-19T15:03:26;5.50;;;4.57;;
495;SDS011;39559;48.630;9.162;2023-06-19T15:05:52;5.47;;;5.07;;
495;SDS011;39559;48.630;9.162;2023-06-19T15:08:18;5.30;;;4.80;;
495;SDS011;39559;48.630;9.162;2023-06-19T15:10:47;5.80;;;4.80;;
495;SDS011;39559;48.630;9.162;2023-06-19T15:15:10;5.50;;;4.23;;
495;SDS011;39559;48.630;9.162;2023-06-19T15:17:36;5.83;;;5.23;;
495;SDS011;39559;48.630;9.162;2023-06-19T15:20:03;5.10;;;4.60;;
495;SDS011;39559;48.630;9.162;2023-06-19T15:22:29;5.40;;;4.90;;
495;SDS011;39559;48.630;9.162;2023-06-19T15:24:55;4.80;;;4.40;;
495;SDS011;39559;48.630;9.162;2023-06-19T15:27:20;6.00;;;5.17;;
495;SDS011;39559;48.630;9.162;2023-06-19T15:29:46;4.90;;;4.40;;
495;SDS011;39559;48.630;9.162;2023-06-19T15:32:12;5.20;;;4.80;;
495;SDS011;39559;48.630;9.162;2023-06-19T15:34:37;5.67;;;5.10;;
495;SDS011;39559;48.630;9.162;2023-06-19T15:39:02;5.87;;;4.67;;
495;SDS011;39559;48.630;9.162;2023-06-19T15:41:28;5.63;;;4.60;;
495;SDS011;39559;48.630;9.162;2023-06-19T15:43:53;5.03;;;4.53;;
495;SDS011;39559;48.630;9.162;2023-06-19T15:46:19;5.80;;;5.10;;
495;SDS011;39559;48.630;9.162;2023-06-19T15:48:45;5.63;;;5.10;;
495;SDS011;39559;48.630;9.162;2023-06-19T15:51:13;6.30;;;5.70;;
495;SDS011;39559;48.630;9.162;2023-06-19T15:53:39;5.60;;;5.10;;
495;SDS011;39559;48.630;9.162;2023-06-19T15:56:05;5.97;;;5.10;;
495;SDS011;39559;48.630;9.162;2023-06-19T15:58:31;6.20;;;5.60;;
495;SDS011;39559;48.630;9.162;2023-06-19T16:02:54;6.27;;;5.70;;
495;SDS011;39559;48.630;9.162;2023-06-19T16:05:20;9.07;;;6.40;;
495;SDS011;39559;48.630;9.162;2023-06-19T16:07:45;5.80;;;5.30;;
495;SDS011;39559;48.630;9.162;2023-06-19T16:10:12;6.77;;;5.70;;
495;SDS011;39559;48.630;9.162;2023-06-19T16:12:41;7.30;;;6.23;;
495;SDS011;39559;48.630;9.162;2023-06-19T16:15:06;6.50;;;5.83;;
495;SDS011;39559;48.630;9.162;2023-06-19T16:17:37;6.77;;;6.07;;
495;SDS011;39559;48.630;9.162;2023-06-19T16:20:04;6.30;;;5.70;;
495;SDS011;39559;48.630;9.162;2023-06-19T16:22:32;6.50;;;5.90;;
495;SDS011;39559;48.630;9.162;2023-06-19T16:26:48;6.50;;;5.83;;
495;SDS011;39559;48.630;9.162;2023-06-19T16:29:13;6.70;;;6.10;;